Forside
METAR-TAF:

METAR-TAF

Lufthavne :

Dusjanbe, Tadsjikistan

Breddekreds: 38-33N, længdekreds: 068-47E, højde: 803 m

Aktuelle vejr

Denne rapport blev lavet for 28 minutter siden, kl. 14:00 UTC
Vind 6 kt fra vestnordvest
Temperatur 36°C
Fugtighed 17%
Tryk 1000 hPa
Sigt 10 km eller mere

METAR: UTDD 201400Z 29003MPS 9999 NSC 36/07 Q1000 R27/D TEMPO 27007MPS RMK QFE684/0912

Tid: 19:28 (14:28 UTC)

Vejrudsigter

Denne rapport blev lavet for 2 timer og 28 minutter siden, kl. 12:00 UTC
Foreløbig gælder fra 20 på 13 UTC til 21 på 01 UTC
Vind 4 kt fra varierende retninger
Sigt: 6000 m
Nogle få skyer i en højde af 6600 ft
Spredte skyer i en højde af 15000 ft
Midlertidig
fra 20 på 13 UTC til 20 på 16 UTC
Vind 10 kt fra vest

TAF: UTDD 201200Z 2013/2101 VRB02MPS 6000 FEW066 SCT150 TEMPO 2013/2016 27005MPS

Vejrobservationer og prognoser fra mere end 4000 lufthavne (METAR og TAF).

De gule og røde prikker repræsenterer de meteorologiske stationer.

Flyt musen over at se navnet på stationen.

Så klik over at se vejr observationer og prognoser.

At skifte det kort: Klik på de grønne knapper med et sort kors for at zoome ind; på den grønne knap med en bindestreg for at zoome ud; eller på de grønne pile for tilstødende kort.


METAR-TAF: